sensor_id;sensor_type;location;lat;lon;timestamp;temperature;humidity
23633;DHT22;11993;48.748;9.166;2023-03-19T00:01:14;13.10;52.40
23633;DHT22;11993;48.748;9.166;2023-03-19T00:03:39;13.10;52.50
23633;DHT22;11993;48.748;9.166;2023-03-19T00:06:05;13.10;52.60
23633;DHT22;11993;48.748;9.166;2023-03-19T00:08:31;13.10;52.50
23633;DHT22;11993;48.748;9.166;2023-03-19T00:10:56;13.00;52.70
23633;DHT22;11993;48.748;9.166;2023-03-19T00:13:22;13.10;52.80
23633;DHT22;11993;48.748;9.166;2023-03-19T00:15:48;13.10;52.70
23633;DHT22;11993;48.748;9.166;2023-03-19T00:18:13;13.10;52.60
23633;DHT22;11993;48.748;9.166;2023-03-19T00:20:39;13.10;52.60
23633;DHT22;11993;48.748;9.166;2023-03-19T00:23:04;13.10;51.70
23633;DHT22;11993;48.748;9.166;2023-03-19T00:25:31;13.10;51.40
23633;DHT22;11993;48.748;9.166;2023-03-19T00:27:56;13.00;52.80
23633;DHT22;11993;48.748;9.166;2023-03-19T00:30:22;13.00;53.20
23633;DHT22;11993;48.748;9.166;2023-03-19T00:32:48;12.90;52.60
23633;DHT22;11993;48.748;9.166;2023-03-19T00:35:14;13.00;52.50
23633;DHT22;11993;48.748;9.166;2023-03-19T00:37:39;13.00;52.90
23633;DHT22;11993;48.748;9.166;2023-03-19T00:40:11;13.10;53.20
23633;DHT22;11993;48.748;9.166;2023-03-19T00:42:36;13.10;53.50
23633;DHT22;11993;48.748;9.166;2023-03-19T00:45:02;13.10;53.30
23633;DHT22;11993;48.748;9.166;2023-03-19T00:47:28;13.10;53.30
23633;DHT22;11993;48.748;9.166;2023-03-19T00:49:53;13.10;53.70
23633;DHT22;11993;48.748;9.166;2023-03-19T00:52:20;13.20;53.70
23633;DHT22;11993;48.748;9.166;2023-03-19T00:54:45;13.20;53.00
23633;DHT22;11993;48.748;9.166;2023-03-19T00:57:11;13.10;52.50
23633;DHT22;11993;48.748;9.166;2023-03-19T00:59:36;13.20;52.50
23633;DHT22;11993;48.748;9.166;2023-03-19T01:02:03;13.20;52.70
23633;DHT22;11993;48.748;9.166;2023-03-19T01:04:28;13.20;52.60
23633;DHT22;11993;48.748;9.166;2023-03-19T01:06:54;13.30;51.40
23633;DHT22;11993;48.748;9.166;2023-03-19T01:09:19;13.30;51.60
23633;DHT22;11993;48.748;9.166;2023-03-19T01:11:45;13.20;51.90
23633;DHT22;11993;48.748;9.166;2023-03-19T01:14:11;13.10;52.30
23633;DHT22;11993;48.748;9.166;2023-03-19T01:16:37;13.20;52.50
23633;DHT22;11993;48.748;9.166;2023-03-19T01:19:02;13.20;52.20
23633;DHT22;11993;48.748;9.166;2023-03-19T01:21:28;13.30;51.90
23633;DHT22;11993;48.748;9.166;2023-03-19T01:23:56;13.20;51.90
23633;DHT22;11993;48.748;9.166;2023-03-19T01:26:22;13.30;51.70
23633;DHT22;11993;48.748;9.166;2023-03-19T01:28:47;13.30;52.10
23633;DHT22;11993;48.748;9.166;2023-03-19T01:31:13;13.20;52.20
23633;DHT22;11993;48.748;9.166;2023-03-19T01:33:38;13.10;52.40
23633;DHT22;11993;48.748;9.166;2023-03-19T01:36:04;13.10;53.10
23633;DHT22;11993;48.748;9.166;2023-03-19T01:38:30;13.10;53.40
23633;DHT22;11993;48.748;9.166;2023-03-19T01:40:56;12.80;53.90
23633;DHT22;11993;48.748;9.166;2023-03-19T01:43:27;12.50;54.70
23633;DHT22;11993;48.748;9.166;2023-03-19T01:46:03;12.40;54.70
23633;DHT22;11993;48.748;9.166;2023-03-19T01:50:59;12.30;53.60
23633;DHT22;11993;48.748;9.166;2023-03-19T01:53:28;12.30;53.80
23633;DHT22;11993;48.748;9.166;2023-03-19T01:56:00;12.20;53.90
23633;DHT22;11993;48.748;9.166;2023-03-19T01:58:28;12.10;54.40
23633;DHT22;11993;48.748;9.166;2023-03-19T02:00:54;11.90;55.10
23633;DHT22;11993;48.748;9.166;2023-03-19T02:03:20;11.90;55.70
23633;DHT22;11993;48.748;9.166;2023-03-19T02:05:48;11.70;56.70
23633;DHT22;11993;48.748;9.166;2023-03-19T02:08:16;11.70;58.00
23633;DHT22;11993;48.748;9.166;2023-03-19T02:10:45;11.60;59.40
23633;DHT22;11993;48.748;9.166;2023-03-19T02:13:11;11.50;60.90
23633;DHT22;11993;48.748;9.166;2023-03-19T02:15:37;11.40;62.80
23633;DHT22;11993;48.748;9.166;2023-03-19T02:18:03;11.60;64.10
23633;DHT22;11993;48.748;9.166;2023-03-19T02:20:57;11.50;66.40
23633;DHT22;11993;48.748;9.166;2023-03-19T02:23:51;11.40;70.40
23633;DHT22;11993;48.748;9.166;2023-03-19T02:26:20;11.40;71.80
23633;DHT22;11993;48.748;9.166;2023-03-19T02:28:48;11.30;72.30
23633;DHT22;11993;48.748;9.166;2023-03-19T02:31:15;11.20;73.10
23633;DHT22;11993;48.748;9.166;2023-03-19T02:33:43;11.20;73.40
23633;DHT22;11993;48.748;9.166;2023-03-19T02:36:13;11.30;73.60
23633;DHT22;11993;48.748;9.166;2023-03-19T02:38:42;11.30;74.00
23633;DHT22;11993;48.748;9.166;2023-03-19T02:41:08;11.50;74.40
23633;DHT22;11993;48.748;9.166;2023-03-19T02:43:37;11.30;75.70
23633;DHT22;11993;48.748;9.166;2023-03-19T02:46:06;11.50;76.00
23633;DHT22;11993;48.748;9.166;2023-03-19T02:48:33;11.30;76.20
23633;DHT22;11993;48.748;9.166;2023-03-19T02:50:59;11.30;74.60
23633;DHT22;11993;48.748;9.166;2023-03-19T02:53:25;11.30;74.70
23633;DHT22;11993;48.748;9.166;2023-03-19T02:55:51;11.20;75.00
23633;DHT22;11993;48.748;9.166;2023-03-19T02:58:17;11.40;76.00
23633;DHT22;11993;48.748;9.166;2023-03-19T03:00:42;11.40;74.70
23633;DHT22;11993;48.748;9.166;2023-03-19T03:03:09;11.20;74.90
23633;DHT22;11993;48.748;9.166;2023-03-19T03:05:35;11.20;74.50
23633;DHT22;11993;48.748;9.166;2023-03-19T03:08:02;11.40;73.70
23633;DHT22;11993;48.748;9.166;2023-03-19T03:10:28;11.40;74.20
23633;DHT22;11993;48.748;9.166;2023-03-19T03:12:54;11.40;74.20
23633;DHT22;11993;48.748;9.166;2023-03-19T03:15:19;11.40;73.60
23633;DHT22;11993;48.748;9.166;2023-03-19T03:17:46;11.40;73.50
23633;DHT22;11993;48.748;9.166;2023-03-19T03:20:14;11.40;74.50
23633;DHT22;11993;48.748;9.166;2023-03-19T03:22:40;11.40;75.40
23633;DHT22;11993;48.748;9.166;2023-03-19T03:25:06;11.20;75.70
23633;DHT22;11993;48.748;9.166;2023-03-19T03:27:34;11.10;76.50
23633;DHT22;11993;48.748;9.166;2023-03-19T03:30:06;10.90;77.20
23633;DHT22;11993;48.748;9.166;2023-03-19T03:32:34;11.00;77.30
23633;DHT22;11993;48.748;9.166;2023-03-19T03:34:59;10.90;77.10
23633;DHT22;11993;48.748;9.166;2023-03-19T03:37:25;10.90;77.40
23633;DHT22;11993;48.748;9.166;2023-03-19T03:39:51;10.70;78.30
23633;DHT22;11993;48.748;9.166;2023-03-19T03:42:17;10.50;79.20
23633;DHT22;11993;48.748;9.166;2023-03-19T03:44:43;10.50;79.20
23633;DHT22;11993;48.748;9.166;2023-03-19T03:47:09;10.40;79.30
23633;DHT22;11993;48.748;9.166;2023-03-19T03:49:34;10.20;79.50
23633;DHT22;11993;48.748;9.166;2023-03-19T03:52:00;10.30;79.40
23633;DHT22;11993;48.748;9.166;2023-03-19T03:54:25;10.40;78.90
23633;DHT22;11993;48.748;9.166;2023-03-19T03:56:51;10.40;78.60
23633;DHT22;11993;48.748;9.166;2023-03-19T03:59:16;10.40;78.80
23633;DHT22;11993;48.748;9.166;2023-03-19T04:01:42;10.40;78.80
23633;DHT22;11993;48.748;9.166;2023-03-19T04:04:08;10.40;78.40
23633;DHT22;11993;48.748;9.166;2023-03-19T04:06:34;10.40;78.50
23633;DHT22;11993;48.748;9.166;2023-03-19T04:08:59;10.20;79.10
23633;DHT22;11993;48.748;9.166;2023-03-19T04:11:26;10.10;79.30
23633;DHT22;11993;48.748;9.166;2023-03-19T04:13:54;10.20;79.30
23633;DHT22;11993;48.748;9.166;2023-03-19T04:16:19;10.00;80.00
23633;DHT22;11993;48.748;9.166;2023-03-19T04:18:45;10.10;79.70
23633;DHT22;11993;48.748;9.166;2023-03-19T04:21:11;10.20;79.30
23633;DHT22;11993;48.748;9.166;2023-03-19T04:23:36;10.20;79.30
23633;DHT22;11993;48.748;9.166;2023-03-19T04:26:04;10.10;79.20
23633;DHT22;11993;48.748;9.166;2023-03-19T04:28:31;10.20;78.60
23633;DHT22;11993;48.748;9.166;2023-03-19T04:31:05;10.40;78.00
23633;DHT22;11993;48.748;9.166;2023-03-19T04:33:32;10.30;78.40
23633;DHT22;11993;48.748;9.166;2023-03-19T04:35:57;10.20;78.50
23633;DHT22;11993;48.748;9.166;2023-03-19T04:38:24;10.10;78.50
23633;DHT22;11993;48.748;9.166;2023-03-19T04:40:54;10.20;78.20
23633;DHT22;11993;48.748;9.166;2023-03-19T04:43:23;10.40;77.60
23633;DHT22;11993;48.748;9.166;2023-03-19T04:45:49;10.50;77.20
23633;DHT22;11993;48.748;9.166;2023-03-19T04:48:15;10.50;77.60
23633;DHT22;11993;48.748;9.166;2023-03-19T04:50:43;10.30;77.50
23633;DHT22;11993;48.748;9.166;2023-03-19T04:53:10;10.10;77.80
23633;DHT22;11993;48.748;9.166;2023-03-19T04:55:35;10.10;77.80
23633;DHT22;11993;48.748;9.166;2023-03-19T04:58:01;10.10;76.90
23633;DHT22;11993;48.748;9.166;2023-03-19T05:00:27;10.00;76.50
23633;DHT22;11993;48.748;9.166;2023-03-19T05:02:55;10.00;76.90
23633;DHT22;11993;48.748;9.166;2023-03-19T05:05:21;10.00;76.70
23633;DHT22;11993;48.748;9.166;2023-03-19T05:07:46;9.90;76.20
23633;DHT22;11993;48.748;9.166;2023-03-19T05:10:12;9.80;76.50
23633;DHT22;11993;48.748;9.166;2023-03-19T05:12:37;9.70;77.40
23633;DHT22;11993;48.748;9.166;2023-03-19T05:15:03;9.80;76.70
23633;DHT22;11993;48.748;9.166;2023-03-19T05:17:30;9.70;77.80
23633;DHT22;11993;48.748;9.166;2023-03-19T05:19:56;9.70;77.30
23633;DHT22;11993;48.748;9.166;2023-03-19T05:22:21;9.80;76.50
23633;DHT22;11993;48.748;9.166;2023-03-19T05:24:48;9.80;77.20
23633;DHT22;11993;48.748;9.166;2023-03-19T05:27:14;9.60;77.10
23633;DHT22;11993;48.748;9.166;2023-03-19T05:29:40;9.60;76.70
23633;DHT22;11993;48.748;9.166;2023-03-19T05:32:07;9.70;77.30
23633;DHT22;11993;48.748;9.166;2023-03-19T05:34:33;9.70;76.60
23633;DHT22;11993;48.748;9.166;2023-03-19T05:36:58;9.70;76.30
23633;DHT22;11993;48.748;9.166;2023-03-19T05:39:24;9.70;76.30
23633;DHT22;11993;48.748;9.166;2023-03-19T05:41:49;9.70;76.00
23633;DHT22;11993;48.748;9.166;2023-03-19T05:44:15;9.70;75.50
23633;DHT22;11993;48.748;9.166;2023-03-19T05:49:18;9.60;75.80
23633;DHT22;11993;48.748;9.166;2023-03-19T05:51:43;9.60;76.30
23633;DHT22;11993;48.748;9.166;2023-03-19T05:54:09;9.70;77.00
23633;DHT22;11993;48.748;9.166;2023-03-19T05:56:35;9.80;76.10
23633;DHT22;11993;48.748;9.166;2023-03-19T05:59:00;9.80;75.70
23633;DHT22;11993;48.748;9.166;2023-03-19T06:01:26;9.70;75.60
23633;DHT22;11993;48.748;9.166;2023-03-19T06:03:51;9.60;75.40
23633;DHT22;11993;48.748;9.166;2023-03-19T06:06:17;9.70;75.50
23633;DHT22;11993;48.748;9.166;2023-03-19T06:08:43;9.70;75.60
23633;DHT22;11993;48.748;9.166;2023-03-19T06:11:08;9.60;75.70
23633;DHT22;11993;48.748;9.166;2023-03-19T06:13:34;9.70;75.90
23633;DHT22;11993;48.748;9.166;2023-03-19T06:16:00;9.90;75.70
23633;DHT22;11993;48.748;9.166;2023-03-19T06:18:26;9.90;75.90
23633;DHT22;11993;48.748;9.166;2023-03-19T06:20:51;9.80;76.10
23633;DHT22;11993;48.748;9.166;2023-03-19T06:23:18;9.90;75.90
23633;DHT22;11993;48.748;9.166;2023-03-19T06:25:43;10.00;75.50
23633;DHT22;11993;48.748;9.166;2023-03-19T06:28:09;10.00;75.10
23633;DHT22;11993;48.748;9.166;2023-03-19T06:30:35;9.90;75.10
23633;DHT22;11993;48.748;9.166;2023-03-19T06:33:01;10.00;74.80
23633;DHT22;11993;48.748;9.166;2023-03-19T06:35:26;10.10;74.80
23633;DHT22;11993;48.748;9.166;2023-03-19T06:37:52;10.10;74.40
23633;DHT22;11993;48.748;9.166;2023-03-19T06:40:18;10.10;74.00
23633;DHT22;11993;48.748;9.166;2023-03-19T06:42:44;10.10;74.30
23633;DHT22;11993;48.748;9.166;2023-03-19T06:45:11;9.90;74.50
23633;DHT22;11993;48.748;9.166;2023-03-19T06:47:39;9.90;75.30
23633;DHT22;11993;48.748;9.166;2023-03-19T06:50:06;10.00;75.50
23633;DHT22;11993;48.748;9.166;2023-03-19T06:52:32;9.90;75.60
23633;DHT22;11993;48.748;9.166;2023-03-19T06:54:58;9.90;75.50
23633;DHT22;11993;48.748;9.166;2023-03-19T06:57:23;10.00;74.80
23633;DHT22;11993;48.748;9.166;2023-03-19T06:59:49;10.10;74.60
23633;DHT22;11993;48.748;9.166;2023-03-19T07:02:15;10.10;74.30
23633;DHT22;11993;48.748;9.166;2023-03-19T07:04:41;10.10;74.70
23633;DHT22;11993;48.748;9.166;2023-03-19T07:07:06;10.00;74.50
23633;DHT22;11993;48.748;9.166;2023-03-19T07:09:32;9.90;74.80
23633;DHT22;11993;48.748;9.166;2023-03-19T07:11:58;10.10;74.60
23633;DHT22;11993;48.748;9.166;2023-03-19T07:14:23;10.00;75.00
23633;DHT22;11993;48.748;9.166;2023-03-19T07:16:49;10.10;75.30
23633;DHT22;11993;48.748;9.166;2023-03-19T07:19:15;10.10;75.10
23633;DHT22;11993;48.748;9.166;2023-03-19T07:21:40;10.20;74.70
23633;DHT22;11993;48.748;9.166;2023-03-19T07:24:06;10.20;75.00
23633;DHT22;11993;48.748;9.166;2023-03-19T07:26:32;10.00;75.90
23633;DHT22;11993;48.748;9.166;2023-03-19T07:28:57;10.10;75.40
23633;DHT22;11993;48.748;9.166;2023-03-19T07:31:23;10.20;74.60
23633;DHT22;11993;48.748;9.166;2023-03-19T07:33:49;10.30;73.80
23633;DHT22;11993;48.748;9.166;2023-03-19T07:36:15;10.30;73.80
23633;DHT22;11993;48.748;9.166;2023-03-19T07:38:41;10.40;73.50
23633;DHT22;11993;48.748;9.166;2023-03-19T07:41:07;10.40;73.30
23633;DHT22;11993;48.748;9.166;2023-03-19T07:43:32;10.40;73.50
23633;DHT22;11993;48.748;9.166;2023-03-19T07:45:58;10.50;73.30
23633;DHT22;11993;48.748;9.166;2023-03-19T07:48:24;10.50;73.40
23633;DHT22;11993;48.748;9.166;2023-03-19T07:50:50;10.60;73.40
23633;DHT22;11993;48.748;9.166;2023-03-19T07:53:15;10.60;73.60
23633;DHT22;11993;48.748;9.166;2023-03-19T07:55:41;10.60;74.00
23633;DHT22;11993;48.748;9.166;2023-03-19T07:58:07;10.60;74.30
23633;DHT22;11993;48.748;9.166;2023-03-19T08:00:32;10.60;74.40
23633;DHT22;11993;48.748;9.166;2023-03-19T08:02:58;10.60;74.50
23633;DHT22;11993;48.748;9.166;2023-03-19T08:05:24;10.60;74.20
23633;DHT22;11993;48.748;9.166;2023-03-19T08:07:49;10.60;74.20
23633;DHT22;11993;48.748;9.166;2023-03-19T08:10:16;10.70;73.80
23633;DHT22;11993;48.748;9.166;2023-03-19T08:12:42;10.70;74.00
23633;DHT22;11993;48.748;9.166;2023-03-19T08:15:09;10.80;74.00
23633;DHT22;11993;48.748;9.166;2023-03-19T08:17:36;10.80;73.60
23633;DHT22;11993;48.748;9.166;2023-03-19T08:20:07;10.80;73.20
23633;DHT22;11993;48.748;9.166;2023-03-19T08:22:37;11.00;73.10
23633;DHT22;11993;48.748;9.166;2023-03-19T08:25:04;10.90;73.10
23633;DHT22;11993;48.748;9.166;2023-03-19T08:27:31;11.00;73.30
23633;DHT22;11993;48.748;9.166;2023-03-19T08:29:58;11.10;72.70
23633;DHT22;11993;48.748;9.166;2023-03-19T08:32:24;10.90;72.80
23633;DHT22;11993;48.748;9.166;2023-03-19T08:34:49;11.00;72.40
23633;DHT22;11993;48.748;9.166;2023-03-19T08:37:17;11.10;72.60
23633;DHT22;11993;48.748;9.166;2023-03-19T08:39:43;11.00;73.50
23633;DHT22;11993;48.748;9.166;2023-03-19T08:42:08;11.20;72.80
23633;DHT22;11993;48.748;9.166;2023-03-19T08:44:34;11.30;72.40
23633;DHT22;11993;48.748;9.166;2023-03-19T08:47:00;11.20;73.10
23633;DHT22;11993;48.748;9.166;2023-03-19T08:49:25;11.30;73.60
23633;DHT22;11993;48.748;9.166;2023-03-19T08:51:51;11.30;73.50
23633;DHT22;11993;48.748;9.166;2023-03-19T08:54:17;11.30;74.20
23633;DHT22;11993;48.748;9.166;2023-03-19T08:56:42;11.50;73.70
23633;DHT22;11993;48.748;9.166;2023-03-19T08:59:08;11.60;72.70
23633;DHT22;11993;48.748;9.166;2023-03-19T09:01:34;11.90;71.90
23633;DHT22;11993;48.748;9.166;2023-03-19T09:03:59;12.00;71.80
23633;DHT22;11993;48.748;9.166;2023-03-19T09:06:25;12.10;72.10
23633;DHT22;11993;48.748;9.166;2023-03-19T09:08:51;12.10;71.30
23633;DHT22;11993;48.748;9.166;2023-03-19T09:11:16;12.10;71.20
23633;DHT22;11993;48.748;9.166;2023-03-19T09:13:42;12.20;71.00
23633;DHT22;11993;48.748;9.166;2023-03-19T09:16:08;12.00;70.90
23633;DHT22;11993;48.748;9.166;2023-03-19T09:18:34;12.30;70.30
23633;DHT22;11993;48.748;9.166;2023-03-19T09:21:00;12.70;69.80
23633;DHT22;11993;48.748;9.166;2023-03-19T09:23:26;13.10;68.00
23633;DHT22;11993;48.748;9.166;2023-03-19T09:25:52;13.20;66.10
23633;DHT22;11993;48.748;9.166;2023-03-19T09:28:17;13.30;65.70
23633;DHT22;11993;48.748;9.166;2023-03-19T09:30:47;13.30;65.50
23633;DHT22;11993;48.748;9.166;2023-03-19T09:33:15;13.50;65.20
23633;DHT22;11993;48.748;9.166;2023-03-19T09:35:41;13.60;64.50
23633;DHT22;11993;48.748;9.166;2023-03-19T09:38:06;14.00;63.50
23633;DHT22;11993;48.748;9.166;2023-03-19T09:40:41;14.30;63.30
23633;DHT22;11993;48.748;9.166;2023-03-19T09:43:43;14.70;61.50
23633;DHT22;11993;48.748;9.166;2023-03-19T09:46:17;14.50;57.30
23633;DHT22;11993;48.748;9.166;2023-03-19T09:49:01;14.40;59.00
23633;DHT22;11993;48.748;9.166;2023-03-19T09:51:52;15.10;57.40
23633;DHT22;11993;48.748;9.166;2023-03-19T09:54:29;15.40;56.00
23633;DHT22;11993;48.748;9.166;2023-03-19T09:56:55;15.40;54.70
23633;DHT22;11993;48.748;9.166;2023-03-19T09:59:23;15.90;53.20
23633;DHT22;11993;48.748;9.166;2023-03-19T10:07:23;16.00;50.60
23633;DHT22;11993;48.748;9.166;2023-03-19T10:15:45;16.10;50.90
23633;DHT22;11993;48.748;9.166;2023-03-19T10:18:17;16.40;49.20
23633;DHT22;11993;48.748;9.166;2023-03-19T10:26:10;17.30;48.00
23633;DHT22;11993;48.748;9.166;2023-03-19T10:28:37;16.80;47.30
23633;DHT22;11993;48.748;9.166;2023-03-19T10:36:34;16.90;47.00
23633;DHT22;11993;48.748;9.166;2023-03-19T10:39:00;16.90;46.20
23633;DHT22;11993;48.748;9.166;2023-03-19T10:41:56;17.00;46.30
23633;DHT22;11993;48.748;9.166;2023-03-19T10:44:34;17.60;45.20
23633;DHT22;11993;48.748;9.166;2023-03-19T10:47:15;17.80;43.90
23633;DHT22;11993;48.748;9.166;2023-03-19T10:49:41;17.10;45.20
23633;DHT22;11993;48.748;9.166;2023-03-19T10:52:28;17.40;44.80
23633;DHT22;11993;48.748;9.166;2023-03-19T10:57:29;18.10;42.90
23633;DHT22;11993;48.748;9.166;2023-03-19T11:00:05;17.60;43.30
23633;DHT22;11993;48.748;9.166;2023-03-19T11:02:35;18.00;42.70
23633;DHT22;11993;48.748;9.166;2023-03-19T11:05:25;17.50;44.10
23633;DHT22;11993;48.748;9.166;2023-03-19T11:10:28;17.80;43.70
23633;DHT22;11993;48.748;9.166;2023-03-19T11:13:16;18.10;43.60
23633;DHT22;11993;48.748;9.166;2023-03-19T11:15:46;18.10;43.60
23633;DHT22;11993;48.748;9.166;2023-03-19T11:18:21;17.90;43.90
23633;DHT22;11993;48.748;9.166;2023-03-19T11:21:04;17.90;44.10
23633;DHT22;11993;48.748;9.166;2023-03-19T11:23:38;17.60;44.10
23633;DHT22;11993;48.748;9.166;2023-03-19T11:26:04;17.70;44.90
23633;DHT22;11993;48.748;9.166;2023-03-19T11:28:30;18.00;44.50
23633;DHT22;11993;48.748;9.166;2023-03-19T11:31:12;18.50;44.40
23633;DHT22;11993;48.748;9.166;2023-03-19T11:34:16;17.80;45.00
23633;DHT22;11993;48.748;9.166;2023-03-19T11:37:00;17.60;44.10
23633;DHT22;11993;48.748;9.166;2023-03-19T11:42:50;18.00;42.80
23633;DHT22;11993;48.748;9.166;2023-03-19T11:45:27;17.70;42.60
23633;DHT22;11993;48.748;9.166;2023-03-19T11:51:09;17.60;43.10
23633;DHT22;11993;48.748;9.166;2023-03-19T11:56:30;17.20;43.80
23633;DHT22;11993;48.748;9.166;2023-03-19T12:02:30;17.70;42.90
23633;DHT22;11993;48.748;9.166;2023-03-19T12:05:20;17.30;44.30
23633;DHT22;11993;48.748;9.166;2023-03-19T12:13:22;18.40;42.20
23633;DHT22;11993;48.748;9.166;2023-03-19T12:19:12;18.50;42.50
23633;DHT22;11993;48.748;9.166;2023-03-19T12:27:33;17.50;43.70
23633;DHT22;11993;48.748;9.166;2023-03-19T12:32:53;18.30;42.60
23633;DHT22;11993;48.748;9.166;2023-03-19T12:35:33;18.60;41.90
23633;DHT22;11993;48.748;9.166;2023-03-19T12:38:23;18.20;43.20
23633;DHT22;11993;48.748;9.166;2023-03-19T12:41:01;18.50;42.50
23633;DHT22;11993;48.748;9.166;2023-03-19T12:43:36;18.30;43.00
23633;DHT22;11993;48.748;9.166;2023-03-19T12:48:48;17.90;43.80
23633;DHT22;11993;48.748;9.166;2023-03-19T12:51:18;18.00;43.50
23633;DHT22;11993;48.748;9.166;2023-03-19T12:53:46;17.90;43.80
23633;DHT22;11993;48.748;9.166;2023-03-19T12:56:26;17.40;44.20
23633;DHT22;11993;48.748;9.166;2023-03-19T13:01:47;17.30;45.10
23633;DHT22;11993;48.748;9.166;2023-03-19T13:04:21;16.90;46.30
23633;DHT22;11993;48.748;9.166;2023-03-19T13:07:02;16.90;46.30
23633;DHT22;11993;48.748;9.166;2023-03-19T13:09:52;16.90;46.40
23633;DHT22;11993;48.748;9.166;2023-03-19T13:12:26;17.10;46.80
23633;DHT22;11993;48.748;9.166;2023-03-19T13:14:58;16.90;49.10
23633;DHT22;11993;48.748;9.166;2023-03-19T13:17:41;16.50;51.40
23633;DHT22;11993;48.748;9.166;2023-03-19T13:22:58;16.00;57.10
23633;DHT22;11993;48.748;9.166;2023-03-19T13:25:40;15.90;58.20
23633;DHT22;11993;48.748;9.166;2023-03-19T13:28:10;15.80;57.60
23633;DHT22;11993;48.748;9.166;2023-03-19T13:30:37;16.00;56.80
23633;DHT22;11993;48.748;9.166;2023-03-19T13:33:06;16.00;57.90
23633;DHT22;11993;48.748;9.166;2023-03-19T13:35:43;16.00;57.60
23633;DHT22;11993;48.748;9.166;2023-03-19T13:40:45;15.70;58.50
23633;DHT22;11993;48.748;9.166;2023-03-19T13:56:26;15.60;58.50
23633;DHT22;11993;48.748;9.166;2023-03-19T13:59:22;15.30;58.00
23633;DHT22;11993;48.748;9.166;2023-03-19T14:01:49;15.30;58.70
23633;DHT22;11993;48.748;9.166;2023-03-19T14:04:21;15.70;57.00
23633;DHT22;11993;48.748;9.166;2023-03-19T14:06:54;15.90;56.20
23633;DHT22;11993;48.748;9.166;2023-03-19T14:11:53;15.90;56.90
23633;DHT22;11993;48.748;9.166;2023-03-19T14:14:20;15.70;57.00
23633;DHT22;11993;48.748;9.166;2023-03-19T14:16:48;15.90;55.70
23633;DHT22;11993;48.748;9.166;2023-03-19T14:19:17;15.70;55.30
23633;DHT22;11993;48.748;9.166;2023-03-19T14:22:00;15.60;54.20
23633;DHT22;11993;48.748;9.166;2023-03-19T14:27:09;15.60;54.50
23633;DHT22;11993;48.748;9.166;2023-03-19T14:29:42;15.60;55.70
23633;DHT22;11993;48.748;9.166;2023-03-19T14:32:18;15.60;56.80
23633;DHT22;11993;48.748;9.166;2023-03-19T14:34:47;15.60;56.90
23633;DHT22;11993;48.748;9.166;2023-03-19T14:37:23;15.70;58.60
23633;DHT22;11993;48.748;9.166;2023-03-19T14:40:17;15.80;58.90
23633;DHT22;11993;48.748;9.166;2023-03-19T14:43:07;16.00;58.00
23633;DHT22;11993;48.748;9.166;2023-03-19T14:45:55;16.10;57.50
23633;DHT22;11993;48.748;9.166;2023-03-19T14:54:03;16.40;53.20
23633;DHT22;11993;48.748;9.166;2023-03-19T14:56:32;16.30;53.80
23633;DHT22;11993;48.748;9.166;2023-03-19T14:58:58;15.90;55.00
23633;DHT22;11993;48.748;9.166;2023-03-19T15:01:31;15.70;55.60
23633;DHT22;11993;48.748;9.166;2023-03-19T15:04:09;15.80;55.60
23633;DHT22;11993;48.748;9.166;2023-03-19T15:06:39;15.60;55.50
23633;DHT22;11993;48.748;9.166;2023-03-19T15:09:16;15.60;55.70
23633;DHT22;11993;48.748;9.166;2023-03-19T15:11:56;15.40;57.10
23633;DHT22;11993;48.748;9.166;2023-03-19T15:14:41;15.30;57.10
23633;DHT22;11993;48.748;9.166;2023-03-19T15:17:23;15.10;58.00
23633;DHT22;11993;48.748;9.166;2023-03-19T15:19:49;14.80;59.50
23633;DHT22;11993;48.748;9.166;2023-03-19T15:22:22;14.70;60.30
23633;DHT22;11993;48.748;9.166;2023-03-19T15:24:50;14.60;60.80
23633;DHT22;11993;48.748;9.166;2023-03-19T15:27:21;14.70;60.20
23633;DHT22;11993;48.748;9.166;2023-03-19T15:29:47;14.70;60.00
23633;DHT22;11993;48.748;9.166;2023-03-19T15:32:30;14.60;60.00
23633;DHT22;11993;48.748;9.166;2023-03-19T15:34:56;14.40;60.70
23633;DHT22;11993;48.748;9.166;2023-03-19T15:37:23;14.40;61.60
23633;DHT22;11993;48.748;9.166;2023-03-19T15:39:53;14.40;61.80
23633;DHT22;11993;48.748;9.166;2023-03-19T15:42:22;14.40;61.70
23633;DHT22;11993;48.748;9.166;2023-03-19T15:45:03;14.30;61.50
23633;DHT22;11993;48.748;9.166;2023-03-19T15:47:33;14.30;60.60
23633;DHT22;11993;48.748;9.166;2023-03-19T15:50:07;14.10;59.90
23633;DHT22;11993;48.748;9.166;2023-03-19T15:52:37;14.10;61.00
23633;DHT22;11993;48.748;9.166;2023-03-19T15:55:03;14.10;60.70
23633;DHT22;11993;48.748;9.166;2023-03-19T15:57:29;14.00;60.50
23633;DHT22;11993;48.748;9.166;2023-03-19T15:59:55;13.80;61.50
23633;DHT22;11993;48.748;9.166;2023-03-19T16:02:31;13.90;61.70
23633;DHT22;11993;48.748;9.166;2023-03-19T16:04:59;13.80;62.80
23633;DHT22;11993;48.748;9.166;2023-03-19T16:10:20;13.70;66.10
23633;DHT22;11993;48.748;9.166;2023-03-19T16:12:48;13.60;67.80
23633;DHT22;11993;48.748;9.166;2023-03-19T16:17:49;13.10;71.80
23633;DHT22;11993;48.748;9.166;2023-03-19T16:20:15;12.90;73.90
23633;DHT22;11993;48.748;9.166;2023-03-19T16:22:41;12.70;74.60
23633;DHT22;11993;48.748;9.166;2023-03-19T16:25:17;12.70;74.80
23633;DHT22;11993;48.748;9.166;2023-03-19T16:27:45;12.40;77.30
23633;DHT22;11993;48.748;9.166;2023-03-19T16:30:22;12.30;77.90
23633;DHT22;11993;48.748;9.166;2023-03-19T16:33:02;12.00;78.70
23633;DHT22;11993;48.748;9.166;2023-03-19T16:35:31;12.10;79.50
23633;DHT22;11993;48.748;9.166;2023-03-19T16:38:22;11.90;80.30
23633;DHT22;11993;48.748;9.166;2023-03-19T16:41:12;11.70;81.50
23633;DHT22;11993;48.748;9.166;2023-03-19T16:43:36;11.80;81.80
23633;DHT22;11993;48.748;9.166;2023-03-19T16:46:10;11.70;82.20
23633;DHT22;11993;48.748;9.166;2023-03-19T16:48:37;11.90;82.60
23633;DHT22;11993;48.748;9.166;2023-03-19T16:51:04;12.00;82.00
23633;DHT22;11993;48.748;9.166;2023-03-19T16:53:30;12.10;81.50
23633;DHT22;11993;48.748;9.166;2023-03-19T16:55:57;12.30;81.30
23633;DHT22;11993;48.748;9.166;2023-03-19T16:58:33;12.10;80.70
23633;DHT22;11993;48.748;9.166;2023-03-19T17:01:00;12.20;80.60
23633;DHT22;11993;48.748;9.166;2023-03-19T17:03:26;12.10;80.50
23633;DHT22;11993;48.748;9.166;2023-03-19T17:05:55;12.00;81.20
23633;DHT22;11993;48.748;9.166;2023-03-19T17:08:21;12.10;81.30
23633;DHT22;11993;48.748;9.166;2023-03-19T17:10:49;12.10;81.10
23633;DHT22;11993;48.748;9.166;2023-03-19T17:13:21;12.20;80.10
23633;DHT22;11993;48.748;9.166;2023-03-19T17:15:50;12.20;79.20
23633;DHT22;11993;48.748;9.166;2023-03-19T17:18:21;12.00;79.70
23633;DHT22;11993;48.748;9.166;2023-03-19T17:20:57;12.10;80.40
23633;DHT22;11993;48.748;9.166;2023-03-19T17:23:25;11.80;80.80
23633;DHT22;11993;48.748;9.166;2023-03-19T17:25:52;11.60;81.90
23633;DHT22;11993;48.748;9.166;2023-03-19T17:28:22;11.80;82.00